sensor_id;sensor_type;location;lat;lon;timestamp;P1;durP1;ratioP1;P2;durP2;ratioP2
32445;SDS011;18899;50.748;7.102;2023-11-21T00:01:54;12.95;;;4.45;;
32445;SDS011;18899;50.748;7.102;2023-11-21T00:04:19;9.23;;;4.60;;
32445;SDS011;18899;50.748;7.102;2023-11-21T00:06:46;18.67;;;4.93;;
32445;SDS011;18899;50.748;7.102;2023-11-21T00:09:12;11.85;;;4.75;;
32445;SDS011;18899;50.748;7.102;2023-11-21T00:11:40;9.55;;;4.68;;
32445;SDS011;18899;50.748;7.102;2023-11-21T00:14:06;9.02;;;4.57;;
32445;SDS011;18899;50.748;7.102;2023-11-21T00:16:31;15.65;;;5.55;;
32445;SDS011;18899;50.748;7.102;2023-11-21T00:18:57;13.07;;;4.93;;
32445;SDS011;18899;50.748;7.102;2023-11-21T00:21:23;8.88;;;4.90;;
32445;SDS011;18899;50.748;7.102;2023-11-21T00:23:49;11.95;;;5.25;;
32445;SDS011;18899;50.748;7.102;2023-11-21T00:26:15;14.57;;;5.47;;
32445;SDS011;18899;50.748;7.102;2023-11-21T00:28:41;12.95;;;5.05;;
32445;SDS011;18899;50.748;7.102;2023-11-21T00:31:07;14.68;;;5.75;;
32445;SDS011;18899;50.748;7.102;2023-11-21T00:33:32;11.55;;;5.18;;
32445;SDS011;18899;50.748;7.102;2023-11-21T00:35:58;13.25;;;5.72;;
32445;SDS011;18899;50.748;7.102;2023-11-21T00:38:24;15.23;;;5.78;;
32445;SDS011;18899;50.748;7.102;2023-11-21T00:40:49;12.20;;;5.88;;
32445;SDS011;18899;50.748;7.102;2023-11-21T00:43:15;13.15;;;5.63;;
32445;SDS011;18899;50.748;7.102;2023-11-21T00:45:40;11.93;;;5.85;;
32445;SDS011;18899;50.748;7.102;2023-11-21T00:48:06;14.00;;;6.50;;
32445;SDS011;18899;50.748;7.102;2023-11-21T00:50:33;12.43;;;6.25;;
32445;SDS011;18899;50.748;7.102;2023-11-21T00:52:58;14.93;;;6.18;;
32445;SDS011;18899;50.748;7.102;2023-11-21T00:55:24;12.50;;;5.78;;
32445;SDS011;18899;50.748;7.102;2023-11-21T00:57:50;14.60;;;6.60;;
32445;SDS011;18899;50.748;7.102;2023-11-21T01:00:16;18.67;;;6.68;;
32445;SDS011;18899;50.748;7.102;2023-11-21T01:02:45;13.10;;;7.80;;
32445;SDS011;18899;50.748;7.102;2023-11-21T01:05:12;11.15;;;7.50;;
32445;SDS011;18899;50.748;7.102;2023-11-21T01:07:38;20.60;;;8.85;;
32445;SDS011;18899;50.748;7.102;2023-11-21T01:10:03;17.98;;;8.52;;
32445;SDS011;18899;50.748;7.102;2023-11-21T01:12:32;24.08;;;9.85;;
32445;SDS011;18899;50.748;7.102;2023-11-21T01:14:59;19.38;;;9.07;;
32445;SDS011;18899;50.748;7.102;2023-11-21T01:17:25;23.45;;;9.43;;
32445;SDS011;18899;50.748;7.102;2023-11-21T01:19:52;24.17;;;9.73;;
32445;SDS011;18899;50.748;7.102;2023-11-21T01:22:17;18.65;;;9.18;;
32445;SDS011;18899;50.748;7.102;2023-11-21T01:24:47;20.38;;;10.55;;
32445;SDS011;18899;50.748;7.102;2023-11-21T01:27:12;19.95;;;10.25;;
32445;SDS011;18899;50.748;7.102;2023-11-21T01:29:38;23.85;;;10.43;;
32445;SDS011;18899;50.748;7.102;2023-11-21T01:32:03;27.13;;;12.60;;
32445;SDS011;18899;50.748;7.102;2023-11-21T01:34:29;27.90;;;12.90;;
32445;SDS011;18899;50.748;7.102;2023-11-21T01:36:55;28.88;;;12.88;;
32445;SDS011;18899;50.748;7.102;2023-11-21T01:39:21;25.35;;;12.93;;
32445;SDS011;18899;50.748;7.102;2023-11-21T01:41:48;23.48;;;11.80;;
32445;SDS011;18899;50.748;7.102;2023-11-21T01:44:15;26.13;;;12.48;;
32445;SDS011;18899;50.748;7.102;2023-11-21T01:46:42;24.33;;;12.55;;
32445;SDS011;18899;50.748;7.102;2023-11-21T01:49:07;29.40;;;12.32;;
32445;SDS011;18899;50.748;7.102;2023-11-21T01:51:38;29.07;;;11.67;;
32445;SDS011;18899;50.748;7.102;2023-11-21T01:54:08;22.48;;;11.45;;
32445;SDS011;18899;50.748;7.102;2023-11-21T01:56:34;18.80;;;10.25;;
32445;SDS011;18899;50.748;7.102;2023-11-21T01:59:00;24.85;;;10.40;;
32445;SDS011;18899;50.748;7.102;2023-11-21T02:01:25;21.92;;;11.20;;
32445;SDS011;18899;50.748;7.102;2023-11-21T02:03:51;25.75;;;11.43;;
32445;SDS011;18899;50.748;7.102;2023-11-21T02:06:17;20.38;;;10.85;;
32445;SDS011;18899;50.748;7.102;2023-11-21T02:08:43;25.20;;;11.05;;
32445;SDS011;18899;50.748;7.102;2023-11-21T02:11:09;24.85;;;12.30;;
32445;SDS011;18899;50.748;7.102;2023-11-21T02:13:37;21.23;;;10.40;;
32445;SDS011;18899;50.748;7.102;2023-11-21T02:16:03;20.95;;;10.38;;
32445;SDS011;18899;50.748;7.102;2023-11-21T02:18:30;29.55;;;11.30;;
32445;SDS011;18899;50.748;7.102;2023-11-21T02:20:56;26.48;;;10.70;;
32445;SDS011;18899;50.748;7.102;2023-11-21T02:23:22;27.38;;;11.07;;
32445;SDS011;18899;50.748;7.102;2023-11-21T02:25:48;22.13;;;10.43;;
32445;SDS011;18899;50.748;7.102;2023-11-21T02:28:14;24.23;;;10.82;;
32445;SDS011;18899;50.748;7.102;2023-11-21T02:30:41;22.92;;;11.02;;
32445;SDS011;18899;50.748;7.102;2023-11-21T02:33:07;25.55;;;10.50;;
32445;SDS011;18899;50.748;7.102;2023-11-21T02:35:33;21.20;;;10.48;;
32445;SDS011;18899;50.748;7.102;2023-11-21T02:37:58;27.13;;;11.43;;
32445;SDS011;18899;50.748;7.102;2023-11-21T02:40:24;31.15;;;11.25;;
32445;SDS011;18899;50.748;7.102;2023-11-21T02:42:51;28.88;;;12.82;;
32445;SDS011;18899;50.748;7.102;2023-11-21T02:45:17;31.17;;;12.27;;
32445;SDS011;18899;50.748;7.102;2023-11-21T02:47:45;29.25;;;12.35;;
32445;SDS011;18899;50.748;7.102;2023-11-21T02:50:11;24.98;;;12.43;;
32445;SDS011;18899;50.748;7.102;2023-11-21T02:52:37;23.95;;;12.82;;
32445;SDS011;18899;50.748;7.102;2023-11-21T02:55:03;25.02;;;13.55;;
32445;SDS011;18899;50.748;7.102;2023-11-21T02:57:29;28.65;;;13.30;;
32445;SDS011;18899;50.748;7.102;2023-11-21T02:59:54;28.65;;;12.95;;
32445;SDS011;18899;50.748;7.102;2023-11-21T03:02:20;27.60;;;12.88;;
32445;SDS011;18899;50.748;7.102;2023-11-21T03:04:47;31.58;;;13.40;;
32445;SDS011;18899;50.748;7.102;2023-11-21T03:07:14;21.08;;;12.18;;
32445;SDS011;18899;50.748;7.102;2023-11-21T03:09:40;32.60;;;12.93;;
32445;SDS011;18899;50.748;7.102;2023-11-21T03:12:05;25.50;;;13.55;;
32445;SDS011;18899;50.748;7.102;2023-11-21T03:14:31;32.30;;;14.13;;
32445;SDS011;18899;50.748;7.102;2023-11-21T03:16:57;27.23;;;13.05;;
32445;SDS011;18899;50.748;7.102;2023-11-21T03:19:22;31.83;;;13.63;;
32445;SDS011;18899;50.748;7.102;2023-11-21T03:21:48;33.15;;;13.85;;
32445;SDS011;18899;50.748;7.102;2023-11-21T03:24:14;27.30;;;13.98;;
32445;SDS011;18899;50.748;7.102;2023-11-21T03:26:45;27.37;;;14.47;;
32445;SDS011;18899;50.748;7.102;2023-11-21T03:29:11;27.13;;;14.00;;
32445;SDS011;18899;50.748;7.102;2023-11-21T03:31:37;27.30;;;13.40;;
32445;SDS011;18899;50.748;7.102;2023-11-21T03:34:02;26.65;;;14.07;;
32445;SDS011;18899;50.748;7.102;2023-11-21T03:36:28;30.55;;;15.18;;
32445;SDS011;18899;50.748;7.102;2023-11-21T03:38:54;29.17;;;13.57;;
32445;SDS011;18899;50.748;7.102;2023-11-21T03:41:20;28.45;;;13.63;;
32445;SDS011;18899;50.748;7.102;2023-11-21T03:43:46;27.15;;;13.25;;
32445;SDS011;18899;50.748;7.102;2023-11-21T03:46:11;35.85;;;13.63;;
32445;SDS011;18899;50.748;7.102;2023-11-21T03:48:37;26.42;;;13.68;;
32445;SDS011;18899;50.748;7.102;2023-11-21T03:51:03;29.25;;;13.40;;
32445;SDS011;18899;50.748;7.102;2023-11-21T03:53:29;32.60;;;13.57;;
32445;SDS011;18899;50.748;7.102;2023-11-21T03:55:54;30.67;;;14.48;;
32445;SDS011;18899;50.748;7.102;2023-11-21T03:58:20;31.60;;;14.85;;
32445;SDS011;18899;50.748;7.102;2023-11-21T04:00:46;35.55;;;15.85;;
32445;SDS011;18899;50.748;7.102;2023-11-21T04:03:14;24.98;;;14.35;;
32445;SDS011;18899;50.748;7.102;2023-11-21T04:05:40;28.70;;;14.57;;
32445;SDS011;18899;50.748;7.102;2023-11-21T04:08:06;28.40;;;14.57;;
32445;SDS011;18899;50.748;7.102;2023-11-21T04:10:32;33.33;;;15.93;;
32445;SDS011;18899;50.748;7.102;2023-11-21T04:12:57;38.40;;;15.70;;
32445;SDS011;18899;50.748;7.102;2023-11-21T04:15:23;34.85;;;15.50;;
32445;SDS011;18899;50.748;7.102;2023-11-21T04:17:49;35.83;;;16.27;;
32445;SDS011;18899;50.748;7.102;2023-11-21T04:20:14;35.63;;;16.08;;
32445;SDS011;18899;50.748;7.102;2023-11-21T04:22:40;37.38;;;16.33;;
32445;SDS011;18899;50.748;7.102;2023-11-21T04:25:08;40.13;;;17.33;;
32445;SDS011;18899;50.748;7.102;2023-11-21T04:27:35;36.70;;;17.80;;
32445;SDS011;18899;50.748;7.102;2023-11-21T04:30:00;40.97;;;18.77;;
32445;SDS011;18899;50.748;7.102;2023-11-21T04:32:26;45.40;;;18.08;;
32445;SDS011;18899;50.748;7.102;2023-11-21T04:34:51;40.13;;;17.30;;
32445;SDS011;18899;50.748;7.102;2023-11-21T04:37:17;35.50;;;16.88;;
32445;SDS011;18899;50.748;7.102;2023-11-21T04:39:42;39.10;;;17.10;;
32445;SDS011;18899;50.748;7.102;2023-11-21T04:42:08;35.92;;;17.45;;
32445;SDS011;18899;50.748;7.102;2023-11-21T04:44:33;34.83;;;16.77;;
32445;SDS011;18899;50.748;7.102;2023-11-21T04:46:59;35.30;;;15.98;;
32445;SDS011;18899;50.748;7.102;2023-11-21T04:49:24;34.75;;;16.17;;
32445;SDS011;18899;50.748;7.102;2023-11-21T04:51:50;44.28;;;17.40;;
32445;SDS011;18899;50.748;7.102;2023-11-21T04:54:15;35.65;;;16.35;;
32445;SDS011;18899;50.748;7.102;2023-11-21T04:56:41;31.73;;;15.48;;
32445;SDS011;18899;50.748;7.102;2023-11-21T04:59:07;35.63;;;17.10;;
32445;SDS011;18899;50.748;7.102;2023-11-21T05:01:32;38.42;;;16.65;;
32445;SDS011;18899;50.748;7.102;2023-11-21T05:03:58;32.08;;;16.40;;
32445;SDS011;18899;50.748;7.102;2023-11-21T05:06:23;37.28;;;16.30;;
32445;SDS011;18899;50.748;7.102;2023-11-21T05:08:49;37.20;;;15.65;;
32445;SDS011;18899;50.748;7.102;2023-11-21T05:11:27;35.20;;;15.90;;
32445;SDS011;18899;50.748;7.102;2023-11-21T05:13:54;34.75;;;15.80;;
32445;SDS011;18899;50.748;7.102;2023-11-21T05:16:25;39.63;;;15.38;;
32445;SDS011;18899;50.748;7.102;2023-11-21T05:18:52;32.75;;;15.30;;
32445;SDS011;18899;50.748;7.102;2023-11-21T05:21:18;29.73;;;14.90;;
32445;SDS011;18899;50.748;7.102;2023-11-21T05:23:45;35.08;;;15.85;;
32445;SDS011;18899;50.748;7.102;2023-11-21T05:26:11;33.15;;;14.95;;
32445;SDS011;18899;50.748;7.102;2023-11-21T05:28:36;31.65;;;14.82;;
32445;SDS011;18899;50.748;7.102;2023-11-21T05:31:02;30.05;;;14.05;;
32445;SDS011;18899;50.748;7.102;2023-11-21T05:33:28;33.33;;;14.27;;
32445;SDS011;18899;50.748;7.102;2023-11-21T05:35:53;39.30;;;15.88;;
32445;SDS011;18899;50.748;7.102;2023-11-21T05:38:18;32.50;;;13.93;;
32445;SDS011;18899;50.748;7.102;2023-11-21T05:40:46;35.22;;;15.43;;
32445;SDS011;18899;50.748;7.102;2023-11-21T05:43:13;31.88;;;15.43;;
32445;SDS011;18899;50.748;7.102;2023-11-21T05:45:40;34.08;;;14.38;;
32445;SDS011;18899;50.748;7.102;2023-11-21T05:48:05;35.47;;;14.95;;
32445;SDS011;18899;50.748;7.102;2023-11-21T05:50:31;33.05;;;15.75;;
32445;SDS011;18899;50.748;7.102;2023-11-21T05:52:57;38.40;;;15.90;;
32445;SDS011;18899;50.748;7.102;2023-11-21T05:55:25;33.42;;;16.05;;
32445;SDS011;18899;50.748;7.102;2023-11-21T05:57:51;34.38;;;17.50;;
32445;SDS011;18899;50.748;7.102;2023-11-21T06:00:16;37.70;;;16.05;;
32445;SDS011;18899;50.748;7.102;2023-11-21T06:02:42;40.38;;;16.73;;
32445;SDS011;18899;50.748;7.102;2023-11-21T06:05:08;38.75;;;16.77;;
32445;SDS011;18899;50.748;7.102;2023-11-21T06:07:35;40.65;;;15.93;;
32445;SDS011;18899;50.748;7.102;2023-11-21T06:10:03;36.63;;;16.30;;
32445;SDS011;18899;50.748;7.102;2023-11-21T06:12:31;36.50;;;16.58;;
32445;SDS011;18899;50.748;7.102;2023-11-21T06:15:00;35.13;;;16.58;;
32445;SDS011;18899;50.748;7.102;2023-11-21T06:17:36;39.90;;;17.58;;
32445;SDS011;18899;50.748;7.102;2023-11-21T06:20:02;39.60;;;17.17;;
32445;SDS011;18899;50.748;7.102;2023-11-21T06:22:34;40.38;;;18.08;;
32445;SDS011;18899;50.748;7.102;2023-11-21T06:25:03;44.65;;;17.58;;
32445;SDS011;18899;50.748;7.102;2023-11-21T06:27:43;43.35;;;17.30;;
32445;SDS011;18899;50.748;7.102;2023-11-21T06:30:10;44.78;;;18.35;;
32445;SDS011;18899;50.748;7.102;2023-11-21T06:32:37;40.10;;;18.80;;
32445;SDS011;18899;50.748;7.102;2023-11-21T06:35:03;34.78;;;17.35;;
32445;SDS011;18899;50.748;7.102;2023-11-21T06:37:29;40.05;;;17.40;;
32445;SDS011;18899;50.748;7.102;2023-11-21T06:39:56;42.35;;;18.55;;
32445;SDS011;18899;50.748;7.102;2023-11-21T06:42:23;39.08;;;17.25;;
32445;SDS011;18899;50.748;7.102;2023-11-21T06:44:49;34.80;;;17.17;;
32445;SDS011;18899;50.748;7.102;2023-11-21T06:47:16;34.88;;;17.23;;
32445;SDS011;18899;50.748;7.102;2023-11-21T06:49:43;36.35;;;16.85;;
32445;SDS011;18899;50.748;7.102;2023-11-21T06:52:08;36.05;;;16.63;;
32445;SDS011;18899;50.748;7.102;2023-11-21T06:54:34;38.75;;;17.77;;
32445;SDS011;18899;50.748;7.102;2023-11-21T06:57:01;48.35;;;17.90;;
32445;SDS011;18899;50.748;7.102;2023-11-21T06:59:30;40.50;;;16.83;;
32445;SDS011;18899;50.748;7.102;2023-11-21T07:01:56;46.10;;;16.95;;
32445;SDS011;18899;50.748;7.102;2023-11-21T07:04:22;49.75;;;17.92;;
32445;SDS011;18899;50.748;7.102;2023-11-21T07:06:47;43.50;;;16.55;;
32445;SDS011;18899;50.748;7.102;2023-11-21T07:09:13;36.00;;;16.63;;
32445;SDS011;18899;50.748;7.102;2023-11-21T07:11:38;36.72;;;15.95;;
32445;SDS011;18899;50.748;7.102;2023-11-21T07:14:04;40.63;;;16.83;;
32445;SDS011;18899;50.748;7.102;2023-11-21T07:16:35;34.50;;;15.98;;
32445;SDS011;18899;50.748;7.102;2023-11-21T07:19:05;42.72;;;17.13;;
32445;SDS011;18899;50.748;7.102;2023-11-21T07:21:35;37.13;;;15.27;;
32445;SDS011;18899;50.748;7.102;2023-11-21T07:24:01;34.08;;;15.82;;
32445;SDS011;18899;50.748;7.102;2023-11-21T07:26:27;41.53;;;15.77;;
32445;SDS011;18899;50.748;7.102;2023-11-21T07:28:53;40.33;;;16.55;;
32445;SDS011;18899;50.748;7.102;2023-11-21T07:31:19;35.53;;;16.15;;
32445;SDS011;18899;50.748;7.102;2023-11-21T07:33:45;41.10;;;15.98;;
32445;SDS011;18899;50.748;7.102;2023-11-21T07:36:14;34.28;;;16.30;;
32445;SDS011;18899;50.748;7.102;2023-11-21T07:38:41;43.20;;;16.95;;
32445;SDS011;18899;50.748;7.102;2023-11-21T07:41:07;44.55;;;17.00;;
32445;SDS011;18899;50.748;7.102;2023-11-21T07:43:34;36.72;;;17.02;;
32445;SDS011;18899;50.748;7.102;2023-11-21T07:46:04;45.45;;;16.48;;
32445;SDS011;18899;50.748;7.102;2023-11-21T07:48:29;39.13;;;15.90;;
32445;SDS011;18899;50.748;7.102;2023-11-21T07:50:56;40.05;;;15.88;;
32445;SDS011;18899;50.748;7.102;2023-11-21T07:53:23;57.35;;;18.13;;
32445;SDS011;18899;50.748;7.102;2023-11-21T07:55:53;43.75;;;17.10;;
32445;SDS011;18899;50.748;7.102;2023-11-21T07:58:19;39.47;;;17.13;;
32445;SDS011;18899;50.748;7.102;2023-11-21T08:00:45;36.80;;;17.90;;
32445;SDS011;18899;50.748;7.102;2023-11-21T08:03:12;48.13;;;16.45;;
32445;SDS011;18899;50.748;7.102;2023-11-21T08:05:38;41.35;;;18.05;;
32445;SDS011;18899;50.748;7.102;2023-11-21T08:08:04;40.38;;;16.02;;
32445;SDS011;18899;50.748;7.102;2023-11-21T08:10:30;37.47;;;16.67;;
32445;SDS011;18899;50.748;7.102;2023-11-21T08:12:55;38.42;;;16.73;;
32445;SDS011;18899;50.748;7.102;2023-11-21T08:15:21;42.88;;;17.95;;
32445;SDS011;18899;50.748;7.102;2023-11-21T08:17:47;42.90;;;18.77;;
32445;SDS011;18899;50.748;7.102;2023-11-21T08:20:13;50.70;;;17.65;;
32445;SDS011;18899;50.748;7.102;2023-11-21T08:22:41;45.33;;;17.65;;
32445;SDS011;18899;50.748;7.102;2023-11-21T08:25:07;45.13;;;17.80;;
32445;SDS011;18899;50.748;7.102;2023-11-21T08:27:33;40.90;;;17.92;;
32445;SDS011;18899;50.748;7.102;2023-11-21T08:29:59;46.78;;;17.20;;
32445;SDS011;18899;50.748;7.102;2023-11-21T08:32:25;36.20;;;16.63;;
32445;SDS011;18899;50.748;7.102;2023-11-21T08:34:51;37.10;;;16.10;;
32445;SDS011;18899;50.748;7.102;2023-11-21T08:37:17;39.30;;;16.75;;
32445;SDS011;18899;50.748;7.102;2023-11-21T08:39:47;45.72;;;17.60;;
32445;SDS011;18899;50.748;7.102;2023-11-21T08:42:13;40.17;;;18.05;;
32445;SDS011;18899;50.748;7.102;2023-11-21T08:44:39;36.17;;;16.67;;
32445;SDS011;18899;50.748;7.102;2023-11-21T08:47:05;40.35;;;17.80;;
32445;SDS011;18899;50.748;7.102;2023-11-21T08:49:31;40.17;;;17.50;;
32445;SDS011;18899;50.748;7.102;2023-11-21T08:51:57;40.60;;;17.05;;
32445;SDS011;18899;50.748;7.102;2023-11-21T08:54:24;38.08;;;16.85;;
32445;SDS011;18899;50.748;7.102;2023-11-21T08:56:51;40.35;;;17.10;;
32445;SDS011;18899;50.748;7.102;2023-11-21T08:59:17;41.60;;;19.10;;
32445;SDS011;18899;50.748;7.102;2023-11-21T09:01:43;41.03;;;17.23;;
32445;SDS011;18899;50.748;7.102;2023-11-21T09:04:08;39.60;;;16.92;;
32445;SDS011;18899;50.748;7.102;2023-11-21T09:06:34;44.72;;;17.60;;
32445;SDS011;18899;50.748;7.102;2023-11-21T09:09:00;41.70;;;16.30;;
32445;SDS011;18899;50.748;7.102;2023-11-21T09:11:25;37.35;;;15.90;;
32445;SDS011;18899;50.748;7.102;2023-11-21T09:13:56;38.65;;;17.25;;
32445;SDS011;18899;50.748;7.102;2023-11-21T09:16:22;38.58;;;15.48;;
32445;SDS011;18899;50.748;7.102;2023-11-21T09:18:48;32.97;;;15.75;;
32445;SDS011;18899;50.748;7.102;2023-11-21T09:21:14;38.08;;;16.25;;
32445;SDS011;18899;50.748;7.102;2023-11-21T09:23:39;33.33;;;15.45;;
32445;SDS011;18899;50.748;7.102;2023-11-21T09:26:05;33.35;;;15.85;;
32445;SDS011;18899;50.748;7.102;2023-11-21T09:28:30;34.95;;;16.33;;
32445;SDS011;18899;50.748;7.102;2023-11-21T09:30:56;37.40;;;17.85;;
32445;SDS011;18899;50.748;7.102;2023-11-21T09:33:21;41.45;;;18.63;;
32445;SDS011;18899;50.748;7.102;2023-11-21T09:35:49;39.05;;;18.73;;
32445;SDS011;18899;50.748;7.102;2023-11-21T09:38:16;43.75;;;19.17;;
32445;SDS011;18899;50.748;7.102;2023-11-21T09:40:41;43.95;;;19.58;;
32445;SDS011;18899;50.748;7.102;2023-11-21T09:43:14;44.65;;;18.95;;
32445;SDS011;18899;50.748;7.102;2023-11-21T09:45:43;44.17;;;18.58;;
32445;SDS011;18899;50.748;7.102;2023-11-21T09:48:18;42.60;;;19.17;;
32445;SDS011;18899;50.748;7.102;2023-11-21T09:50:45;39.10;;;18.48;;
32445;SDS011;18899;50.748;7.102;2023-11-21T09:53:13;41.08;;;18.77;;
32445;SDS011;18899;50.748;7.102;2023-11-21T09:55:52;42.63;;;20.13;;
32445;SDS011;18899;50.748;7.102;2023-11-21T09:58:19;43.70;;;18.50;;
32445;SDS011;18899;50.748;7.102;2023-11-21T10:00:47;41.15;;;18.35;;
32445;SDS011;18899;50.748;7.102;2023-11-21T10:03:16;42.72;;;18.70;;
32445;SDS011;18899;50.748;7.102;2023-11-21T10:05:42;40.55;;;19.08;;
32445;SDS011;18899;50.748;7.102;2023-11-21T10:08:10;46.97;;;20.92;;
32445;SDS011;18899;50.748;7.102;2023-11-21T10:10:37;46.30;;;20.25;;
32445;SDS011;18899;50.748;7.102;2023-11-21T10:13:09;52.33;;;21.10;;
32445;SDS011;18899;50.748;7.102;2023-11-21T10:15:37;48.90;;;20.13;;
32445;SDS011;18899;50.748;7.102;2023-11-21T10:18:03;52.38;;;20.83;;
32445;SDS011;18899;50.748;7.102;2023-11-21T10:20:31;47.05;;;20.75;;
32445;SDS011;18899;50.748;7.102;2023-11-21T10:22:58;46.42;;;20.65;;
32445;SDS011;18899;50.748;7.102;2023-11-21T10:25:27;51.83;;;21.30;;
32445;SDS011;18899;50.748;7.102;2023-11-21T10:27:57;46.08;;;21.52;;
32445;SDS011;18899;50.748;7.102;2023-11-21T10:30:32;43.83;;;21.65;;
32445;SDS011;18899;50.748;7.102;2023-11-21T10:33:01;50.50;;;22.33;;
32445;SDS011;18899;50.748;7.102;2023-11-21T10:35:44;57.65;;;23.25;;
32445;SDS011;18899;50.748;7.102;2023-11-21T10:38:19;50.25;;;22.98;;
32445;SDS011;18899;50.748;7.102;2023-11-21T10:40:48;50.63;;;22.58;;
32445;SDS011;18899;50.748;7.102;2023-11-21T10:43:14;52.00;;;23.13;;
32445;SDS011;18899;50.748;7.102;2023-11-21T10:45:40;48.83;;;22.92;;
32445;SDS011;18899;50.748;7.102;2023-11-21T10:48:10;53.10;;;24.00;;
32445;SDS011;18899;50.748;7.102;2023-11-21T10:50:42;49.25;;;23.48;;
32445;SDS011;18899;50.748;7.102;2023-11-21T10:53:11;56.78;;;23.90;;
32445;SDS011;18899;50.748;7.102;2023-11-21T10:55:38;53.75;;;23.80;;
32445;SDS011;18899;50.748;7.102;2023-11-21T10:58:03;67.32;;;26.33;;
32445;SDS011;18899;50.748;7.102;2023-11-21T11:00:31;54.25;;;24.25;;
32445;SDS011;18899;50.748;7.102;2023-11-21T11:02:58;51.72;;;23.85;;
32445;SDS011;18899;50.748;7.102;2023-11-21T11:05:25;52.75;;;23.48;;
32445;SDS011;18899;50.748;7.102;2023-11-21T11:08:00;47.72;;;23.45;;
32445;SDS011;18899;50.748;7.102;2023-11-21T11:10:27;61.17;;;24.25;;
32445;SDS011;18899;50.748;7.102;2023-11-21T11:12:54;49.92;;;22.90;;
32445;SDS011;18899;50.748;7.102;2023-11-21T11:15:21;52.30;;;24.33;;
32445;SDS011;18899;50.748;7.102;2023-11-21T11:17:46;52.60;;;23.45;;
32445;SDS011;18899;50.748;7.102;2023-11-21T11:20:14;58.00;;;25.55;;
32445;SDS011;18899;50.748;7.102;2023-11-21T11:36:06;56.28;;;24.13;;
32445;SDS011;18899;50.748;7.102;2023-11-21T11:38:46;60.15;;;25.45;;
32445;SDS011;18899;50.748;7.102;2023-11-21T11:41:15;55.70;;;23.60;;
32445;SDS011;18899;50.748;7.102;2023-11-21T11:43:58;56.50;;;24.92;;
32445;SDS011;18899;50.748;7.102;2023-11-21T11:46:41;55.95;;;25.63;;
32445;SDS011;18899;50.748;7.102;2023-11-21T11:49:08;68.05;;;27.17;;
32445;SDS011;18899;50.748;7.102;2023-11-21T11:51:33;61.60;;;25.80;;
32445;SDS011;18899;50.748;7.102;2023-11-21T11:54:01;56.80;;;24.45;;
32445;SDS011;18899;50.748;7.102;2023-11-21T11:56:28;55.63;;;24.38;;
32445;SDS011;18899;50.748;7.102;2023-11-21T11:58:57;52.22;;;22.33;;
32445;SDS011;18899;50.748;7.102;2023-11-21T12:01:25;55.03;;;23.90;;
32445;SDS011;18899;50.748;7.102;2023-11-21T12:06:39;44.40;;;21.83;;
32445;SDS011;18899;50.748;7.102;2023-11-21T12:09:06;48.90;;;22.42;;
32445;SDS011;18899;50.748;7.102;2023-11-21T12:11:32;46.42;;;21.38;;
32445;SDS011;18899;50.748;7.102;2023-11-21T12:14:00;47.83;;;22.77;;
32445;SDS011;18899;50.748;7.102;2023-11-21T12:16:32;44.58;;;21.95;;
32445;SDS011;18899;50.748;7.102;2023-11-21T12:18:58;45.15;;;20.45;;
32445;SDS011;18899;50.748;7.102;2023-11-21T12:21:23;50.88;;;21.63;;
32445;SDS011;18899;50.748;7.102;2023-11-21T12:23:49;52.85;;;21.52;;
32445;SDS011;18899;50.748;7.102;2023-11-21T12:26:15;46.30;;;20.00;;
32445;SDS011;18899;50.748;7.102;2023-11-21T12:28:41;49.67;;;21.35;;
32445;SDS011;18899;50.748;7.102;2023-11-21T12:31:06;46.08;;;20.92;;
32445;SDS011;18899;50.748;7.102;2023-11-21T12:33:35;50.63;;;20.15;;
32445;SDS011;18899;50.748;7.102;2023-11-21T12:36:01;45.83;;;19.70;;
32445;SDS011;18899;50.748;7.102;2023-11-21T12:38:33;41.70;;;20.13;;
32445;SDS011;18899;50.748;7.102;2023-11-21T12:41:00;47.08;;;19.77;;
32445;SDS011;18899;50.748;7.102;2023-11-21T12:43:25;50.08;;;19.35;;
32445;SDS011;18899;50.748;7.102;2023-11-21T12:48:55;49.83;;;19.35;;
32445;SDS011;18899;50.748;7.102;2023-11-21T12:51:22;41.05;;;18.10;;
32445;SDS011;18899;50.748;7.102;2023-11-21T12:53:48;53.85;;;19.23;;
32445;SDS011;18899;50.748;7.102;2023-11-21T12:56:14;41.67;;;19.02;;
32445;SDS011;18899;50.748;7.102;2023-11-21T12:58:43;50.92;;;19.65;;
32445;SDS011;18899;50.748;7.102;2023-11-21T13:01:12;48.50;;;19.23;;
32445;SDS011;18899;50.748;7.102;2023-11-21T13:03:43;49.38;;;18.70;;
32445;SDS011;18899;50.748;7.102;2023-11-21T13:06:10;54.80;;;19.80;;
32445;SDS011;18899;50.748;7.102;2023-11-21T13:08:37;43.08;;;17.92;;
32445;SDS011;18899;50.748;7.102;2023-11-21T13:11:04;44.30;;;18.92;;
32445;SDS011;18899;50.748;7.102;2023-11-21T13:13:31;44.17;;;18.48;;
32445;SDS011;18899;50.748;7.102;2023-11-21T13:15:59;43.83;;;18.98;;
32445;SDS011;18899;50.748;7.102;2023-11-21T13:18:26;39.53;;;16.85;;
32445;SDS011;18899;50.748;7.102;2023-11-21T13:20:56;50.25;;;17.90;;
32445;SDS011;18899;50.748;7.102;2023-11-21T13:23:23;43.20;;;18.42;;
32445;SDS011;18899;50.748;7.102;2023-11-21T13:25:49;44.20;;;18.65;;
32445;SDS011;18899;50.748;7.102;2023-11-21T13:28:15;43.70;;;19.77;;
32445;SDS011;18899;50.748;7.102;2023-11-21T13:30:41;39.83;;;16.88;;
32445;SDS011;18899;50.748;7.102;2023-11-21T13:33:07;47.38;;;18.17;;
32445;SDS011;18899;50.748;7.102;2023-11-21T13:35:34;46.20;;;19.45;;
32445;SDS011;18899;50.748;7.102;2023-11-21T13:40:32;48.63;;;17.98;;
32445;SDS011;18899;50.748;7.102;2023-11-21T13:43:04;44.35;;;17.52;;
32445;SDS011;18899;50.748;7.102;2023-11-21T13:45:30;47.30;;;19.05;;
32445;SDS011;18899;50.748;7.102;2023-11-21T13:47:56;43.10;;;17.48;;
32445;SDS011;18899;50.748;7.102;2023-11-21T13:50:22;42.28;;;17.77;;
32445;SDS011;18899;50.748;7.102;2023-11-21T13:55:19;39.50;;;16.38;;
32445;SDS011;18899;50.748;7.102;2023-11-21T13:57:46;51.42;;;20.00;;
32445;SDS011;18899;50.748;7.102;2023-11-21T14:00:16;48.65;;;18.60;;
32445;SDS011;18899;50.748;7.102;2023-11-21T14:03:06;42.97;;;17.23;;
32445;SDS011;18899;50.748;7.102;2023-11-21T14:05:41;44.95;;;17.23;;
32445;SDS011;18899;50.748;7.102;2023-11-21T14:08:08;42.95;;;17.10;;
32445;SDS011;18899;50.748;7.102;2023-11-21T14:10:37;42.08;;;16.23;;
32445;SDS011;18899;50.748;7.102;2023-11-21T14:13:07;47.75;;;16.73;;
32445;SDS011;18899;50.748;7.102;2023-11-21T14:15:35;46.88;;;17.02;;
32445;SDS011;18899;50.748;7.102;2023-11-21T14:18:06;32.78;;;14.73;;
32445;SDS011;18899;50.748;7.102;2023-11-21T14:20:35;52.60;;;17.38;;
32445;SDS011;18899;50.748;7.102;2023-11-21T14:23:02;41.50;;;16.38;;
32445;SDS011;18899;50.748;7.102;2023-11-21T14:25:29;38.17;;;16.17;;
32445;SDS011;18899;50.748;7.102;2023-11-21T14:27:54;39.70;;;16.05;;
32445;SDS011;18899;50.748;7.102;2023-11-21T14:30:21;43.15;;;17.00;;
32445;SDS011;18899;50.748;7.102;2023-11-21T14:32:47;45.42;;;16.63;;
32445;SDS011;18899;50.748;7.102;2023-11-21T14:35:13;38.72;;;16.13;;
32445;SDS011;18899;50.748;7.102;2023-11-21T14:37:40;48.20;;;16.98;;
32445;SDS011;18899;50.748;7.102;2023-11-21T14:40:05;42.15;;;16.85;;
32445;SDS011;18899;50.748;7.102;2023-11-21T14:42:32;42.35;;;16.67;;
32445;SDS011;18899;50.748;7.102;2023-11-21T14:44:59;47.42;;;17.90;;
32445;SDS011;18899;50.748;7.102;2023-11-21T14:47:28;48.53;;;18.23;;